Terminal Aerodrome Forecast
Issued by NWS Shreveport, LA

Home | Current Version | Previous Version | Text Only | Print | Product List | Glossary On
Versions: 1 2 3 4 5 6 7 8 9 10 11 12 13 14 15 16 17 18 19
000
FTUS44 KSHV 292347
TAFGGG
TAF
KGGG 292347Z 3000/3024 10010G18KT P6SM VCTS OVC035CB
      TEMPO 3000/3004 VRB15G25KT 2SM TSRA BR BKN015 OVC035CB
     FM300900 18010KT 4SM TSRA BR OVC015CB
     FM301500 19008KT P6SM VCTS OVC025CB
     FM301800 22008KT P6SM SCT025 BKN250=

USA.gov is the U.S. government's official web portal to all federal, state and local government web resources and services.